Time;durP1;ratioP1;P1;durP2;ratioP2;P2;SDS_P1;SDS_P2;PMS_P1;PMS_P2;Temp;Humidity;BMP_temperature;BMP_pressure;BME280_temperature;BME280_humidity;BME280_pressure;Samples;Min_cycle;Max_cycle;Signal;HPM_P1;HPM_P2
2022/09/08 00:01:36;;;;;;;3.38;1.20;;;20.30;94.00;;;;;;5066468;28;20067;-70
2022/09/08 00:04:04;;;;;;;1.50;1.40;;;20.40;94.00;;;;;;5061165;28;20378;-70
2022/09/08 00:06:31;;;;;;;2.33;1.27;;;20.30;94.00;;;;;;5062557;28;20031;-71
2022/09/08 00:08:58;;;;;;;3.72;1.20;;;20.30;94.00;;;;;;5043038;28;20055;-70
2022/09/08 00:11:29;;;;;;;2.15;1.35;;;20.30;94.10;;;;;;5034296;28;20444;-70
2022/09/08 00:14:01;;;;;;;3.25;1.63;;;20.30;94.00;;;;;;5060587;28;20025;-70
2022/09/08 00:16:27;;;;;;;3.53;1.30;;;20.30;94.00;;;;;;5042150;28;20470;-70
2022/09/08 00:18:53;;;;;;;1.67;1.20;;;20.30;94.10;;;;;;5067573;28;20024;-70
2022/09/08 00:21:24;;;;;;;5.78;1.60;;;20.30;94.10;;;;;;5068588;28;20029;-70
2022/09/08 00:23:50;;;;;;;6.82;1.45;;;20.30;94.10;;;;;;5056548;28;20174;-70
2022/09/08 00:26:17;;;;;;;10.32;1.42;;;20.30;94.10;;;;;;5059426;28;20111;-70
2022/09/08 00:28:43;;;;;;;5.85;1.50;;;20.30;94.10;;;;;;5047243;28;20062;-70
2022/09/08 00:31:09;;;;;;;1.95;1.30;;;20.30;94.10;;;;;;5061252;28;20083;-70
2022/09/08 00:33:35;;;;;;;1.30;1.20;;;20.30;94.10;;;;;;5041268;28;20359;-70
2022/09/08 00:36:03;;;;;;;6.10;0.88;;;20.30;94.10;;;;;;5058271;28;20025;-71
2022/09/08 00:38:30;;;;;;;2.92;1.23;;;20.30;94.10;;;;;;5045111;28;20025;-70
2022/09/08 00:40:57;;;;;;;1.90;1.20;;;20.30;94.10;;;;;;5045541;28;20021;-70
2022/09/08 00:43:52;;;;;;;3.63;1.40;;;20.30;94.20;;;;;;5061957;28;20016;-71
2022/09/08 00:46:31;;;;;;;9.15;1.38;;;20.30;94.20;;;;;;5038756;28;20044;-70
2022/09/08 00:49:12;;;;;;;4.85;1.13;;;20.30;94.20;;;;;;5066769;28;20020;-70
2022/09/08 00:51:42;;;;;;;4.60;1.38;;;20.30;94.20;;;;;;5040095;28;20057;-70
2022/09/08 00:54:10;;;;;;;1.42;1.20;;;20.30;94.20;;;;;;5058749;28;20021;-70
2022/09/08 00:56:37;;;;;;;3.97;1.23;;;20.20;94.10;;;;;;5057606;28;20544;-71
2022/09/08 00:59:03;;;;;;;2.50;1.30;;;20.20;94.10;;;;;;5057936;28;20019;-70
2022/09/08 01:01:32;;;;;;;2.28;1.23;;;20.20;94.20;;;;;;5050450;28;20020;-70
2022/09/08 01:03:58;;;;;;;2.50;1.65;;;20.20;94.20;;;;;;5058316;28;20017;-70
2022/09/08 01:12:55;;;;;;;1.58;1.30;;;20.20;94.20;;;;;;5053463;28;20067;-70
2022/09/08 01:15:24;;;;;;;4.85;1.40;;;20.20;94.20;;;;;;5039409;28;20379;-70
2022/09/08 01:17:52;;;;;;;4.68;1.35;;;20.20;94.50;;;;;;5057654;28;20501;-70
2022/09/08 01:20:27;;;;;;;3.63;1.88;;;20.20;94.20;;;;;;5041844;28;20053;-70
2022/09/08 01:23:25;;;;;;;2.63;1.40;;;20.20;94.20;;;;;;5039843;28;20241;-70
2022/09/08 01:26:21;;;;;;;2.63;1.52;;;20.20;94.20;;;;;;5041643;28;20035;-70
2022/09/08 01:35:45;;;;;;;2.35;1.30;;;20.20;94.20;;;;;;5068938;28;20037;-70
2022/09/08 01:41:33;;;;;;;4.38;1.65;;;20.20;94.30;;;;;;5059033;28;20489;-70
2022/09/08 01:43:59;;;;;;;4.82;1.00;;;20.20;94.30;;;;;;5058122;28;20111;-70
2022/09/08 01:46:24;;;;;;;1.30;1.20;;;20.20;94.30;;;;;;5056981;28;20104;-71
2022/09/08 01:48:50;;;;;;;2.30;1.33;;;20.20;94.30;;;;;;5058359;28;20521;-70
2022/09/08 01:51:15;;;;;;;5.00;1.13;;;20.20;94.60;;;;;;5066388;28;20373;-70
2022/09/08 01:54:34;;;;;;;1.20;1.10;;;20.20;94.30;;;;;;5050804;28;20471;-70
2022/09/08 01:57:00;;;;;;;1.65;0.98;;;20.20;94.30;;;;;;5060778;28;20031;-70
2022/09/08 01:59:26;;;;;;;3.03;1.27;;;20.20;94.30;;;;;;5047269;28;20017;-71
2022/09/08 02:01:51;;;;;;;3.95;1.98;;;20.20;94.30;;;;;;5068156;28;20496;-71
2022/09/08 02:04:17;;;;;;;1.83;1.20;;;20.20;94.30;;;;;;5062364;28;20386;-70
2022/09/08 02:06:43;;;;;;;3.03;1.30;;;20.20;94.30;;;;;;5042454;28;20024;-71
2022/09/08 02:09:09;;;;;;;5.30;1.00;;;20.20;94.40;;;;;;5061195;28;20401;-71
2022/09/08 02:11:35;;;;;;;2.33;1.10;;;20.20;94.30;;;;;;5035366;28;20025;-70
2022/09/08 02:14:00;;;;;;;1.17;1.08;;;20.20;94.30;;;;;;5067652;28;20053;-71
2022/09/08 02:16:26;;;;;;;6.47;1.20;;;20.20;94.40;;;;;;5062958;28;20103;-70
2022/09/08 02:18:55;;;;;;;2.67;1.10;;;20.10;94.30;;;;;;5061612;28;20021;-71
2022/09/08 02:21:21;;;;;;;9.07;1.30;;;20.10;94.30;;;;;;5062340;28;20322;-71
2022/09/08 02:23:49;;;;;;;3.03;1.23;;;20.10;94.30;;;;;;5060736;28;20539;-70
2022/09/08 02:26:21;;;;;;;1.20;1.10;;;20.10;94.30;;;;;;5060661;28;20109;-71
2022/09/08 02:28:47;;;;;;;3.90;1.23;;;20.10;94.30;;;;;;5048582;28;20021;-71
2022/09/08 02:31:13;;;;;;;4.65;1.40;;;20.10;94.30;;;;;;5056809;28;20025;-70
2022/09/08 02:33:40;;;;;;;1.67;1.27;;;20.10;94.30;;;;;;5061385;28;20035;-71
2022/09/08 02:36:06;;;;;;;5.70;1.30;;;20.10;94.30;;;;;;5060372;28;20028;-71
2022/09/08 02:38:32;;;;;;;4.07;1.33;;;20.10;94.30;;;;;;5060243;28;20029;-70
2022/09/08 02:41:00;;;;;;;3.85;1.50;;;20.10;94.40;;;;;;5060839;28;20108;-72
2022/09/08 02:43:26;;;;;;;1.27;1.17;;;20.10;94.40;;;;;;5061393;28;20691;-70
2022/09/08 02:45:52;;;;;;;2.42;1.25;;;20.10;94.40;;;;;;5063454;28;20035;-70
2022/09/08 02:48:18;;;;;;;1.75;1.42;;;20.10;94.40;;;;;;5064542;28;20490;-71
2022/09/08 02:50:44;;;;;;;2.83;1.40;;;20.10;94.40;;;;;;5060341;28;20035;-71
2022/09/08 02:53:09;;;;;;;6.97;1.60;;;20.10;94.40;;;;;;5061292;28;20067;-70
2022/09/08 02:55:40;;;;;;;1.52;1.33;;;20.10;94.40;;;;;;5060789;28;20025;-71
2022/09/08 02:58:07;;;;;;;1.85;1.33;;;20.10;94.40;;;;;;5058439;28;20524;-71
2022/09/08 03:00:35;;;;;;;5.65;1.67;;;20.10;94.40;;;;;;5043920;28;20123;-70
2022/09/08 03:03:02;;;;;;;4.57;1.67;;;20.10;94.40;;;;;;5063724;28;20087;-71
2022/09/08 03:05:29;;;;;;;1.65;1.27;;;20.10;94.40;;;;;;5061388;28;20056;-70
2022/09/08 03:07:54;;;;;;;5.03;1.52;;;20.10;94.40;;;;;;5060243;28;20013;-71
2022/09/08 03:10:23;;;;;;;4.22;2.05;;;20.10;94.50;;;;;;5061422;28;20382;-71
2022/09/08 03:12:52;;;;;;;3.17;1.50;;;20.10;94.50;;;;;;5037473;28;20541;-72
2022/09/08 03:15:19;;;;;;;5.43;2.00;;;20.10;94.80;;;;;;5063527;28;20554;-71
2022/09/08 03:17:45;;;;;;;2.13;1.80;;;20.10;94.50;;;;;;5060382;28;20777;-70
2022/09/08 03:20:11;;;;;;;2.50;1.80;;;20.10;94.50;;;;;;5059702;28;20509;-71
2022/09/08 03:22:36;;;;;;;3.33;2.10;;;20.10;94.50;;;;;;5043736;28;20029;-70
2022/09/08 03:25:03;;;;;;;4.70;2.05;;;20.10;94.50;;;;;;5056893;28;20210;-71
2022/09/08 03:28:07;;;;;;;3.25;1.90;;;20.10;94.50;;;;;;5060134;28;20043;-71
2022/09/08 03:30:51;;;;;;;2.58;2.10;;;20.10;94.50;;;;;;5053050;28;20025;-71
2022/09/08 03:33:17;;;;;;;3.85;2.10;;;20.10;94.50;;;;;;5052676;28;20037;-71
2022/09/08 03:35:43;;;;;;;2.28;1.95;;;20.10;94.50;;;;;;5059435;28;20075;-71
2022/09/08 03:38:09;;;;;;;4.88;2.05;;;20.10;94.50;;;;;;5060431;28;20028;-70
2022/09/08 03:40:38;;;;;;;3.33;2.00;;;20.10;94.50;;;;;;5041281;28;20379;-71
2022/09/08 03:43:05;;;;;;;3.67;2.35;;;20.10;94.50;;;;;;5060001;28;20036;-71
2022/09/08 03:45:31;;;;;;;2.40;1.83;;;20.00;94.50;;;;;;5059150;28;20382;-71
2022/09/08 03:47:56;;;;;;;3.03;2.10;;;20.00;94.50;;;;;;5063737;28;20032;-70
2022/09/08 03:50:22;;;;;;;3.28;2.10;;;20.00;94.50;;;;;;5062940;28;20039;-70
2022/09/08 03:52:48;;;;;;;7.07;2.13;;;20.00;94.50;;;;;;5042574;28;21062;-71
2022/09/08 03:55:14;;;;;;;2.35;2.15;;;20.00;94.50;;;;;;5052898;28;20071;-71
2022/09/08 03:57:39;;;;;;;4.43;2.15;;;20.00;94.50;;;;;;5041858;28;20409;-72
2022/09/08 04:00:08;;;;;;;2.03;1.80;;;20.00;94.50;;;;;;5041779;28;20028;-71
2022/09/08 04:02:34;;;;;;;4.30;2.28;;;20.00;94.50;;;;;;5042278;28;20390;-70
2022/09/08 04:05:00;;;;;;;2.42;1.70;;;20.00;94.60;;;;;;5061807;28;20036;-72
2022/09/08 04:07:28;;;;;;;3.20;2.13;;;20.00;94.90;;;;;;5063042;28;20017;-70
2022/09/08 04:09:56;;;;;;;2.70;2.00;;;20.00;94.60;;;;;;5062724;28;20071;-70
2022/09/08 04:12:22;;;;;;;3.10;2.00;;;20.00;94.50;;;;;;5057688;28;20092;-71
2022/09/08 04:14:48;;;;;;;4.63;2.15;;;20.00;94.60;;;;;;5054228;28;20032;-70
2022/09/08 04:17:15;;;;;;;6.00;1.65;;;20.00;94.60;;;;;;5052061;28;20321;-70
2022/09/08 04:19:41;;;;;;;3.08;2.20;;;20.00;94.60;;;;;;5041056;28;20036;-71
2022/09/08 04:22:06;;;;;;;6.50;1.95;;;20.00;94.60;;;;;;5055650;28;20016;-70
2022/09/08 04:24:33;;;;;;;4.38;2.33;;;20.00;94.60;;;;;;5071416;28;20020;-70
2022/09/08 04:26:59;;;;;;;2.40;2.05;;;20.00;94.60;;;;;;5052178;28;20094;-71
2022/09/08 04:29:26;;;;;;;2.35;1.63;;;20.00;94.60;;;;;;5062709;28;20031;-71
2022/09/08 04:31:51;;;;;;;1.88;1.77;;;20.00;94.60;;;;;;5059651;28;20410;-70
2022/09/08 04:34:19;;;;;;;3.85;1.98;;;20.00;94.60;;;;;;5065147;28;20111;-70
2022/09/08 04:36:45;;;;;;;1.92;1.70;;;20.00;94.60;;;;;;5059911;28;20103;-71
2022/09/08 04:39:12;;;;;;;2.35;1.63;;;20.00;94.60;;;;;;5058336;28;20059;-71
2022/09/08 04:41:38;;;;;;;3.55;1.70;;;20.00;94.60;;;;;;5063411;28;20079;-72
2022/09/08 04:54:10;;;;;;;1.92;1.60;;;20.00;94.70;;;;;;5073969;23;20444;-67
2022/09/08 04:56:36;;;;;;;3.45;1.65;;;20.00;94.70;;;;;;5007500;28;20029;-66
2022/09/08 04:59:03;;;;;;;5.15;2.05;;;20.00;94.70;;;;;;5008947;28;20022;-66
2022/09/08 05:01:31;;;;;;;1.95;1.50;;;20.00;94.80;;;;;;5010936;28;20022;-66
2022/09/08 05:04:00;;;;;;;2.95;1.60;;;20.00;94.70;;;;;;5010407;28;20104;-66
2022/09/08 05:06:27;;;;;;;3.28;1.50;;;20.00;94.70;;;;;;5010278;28;20037;-66
2022/09/08 05:08:55;;;;;;;3.30;1.65;;;20.00;95.00;;;;;;5009372;28;20030;-66
2022/09/08 05:11:21;;;;;;;2.10;1.80;;;19.90;94.70;;;;;;5015459;28;20041;-67
2022/09/08 05:13:49;;;;;;;1.20;1.10;;;20.00;94.70;;;;;;5019676;28;20037;-67
2022/09/08 05:16:20;;;;;;;1.42;1.20;;;20.00;94.70;;;;;;5008284;28;20029;-66
2022/09/08 05:18:51;;;;;;;1.67;1.23;;;19.90;94.70;;;;;;5010147;28;20033;-67
2022/09/08 05:21:17;;;;;;;1.13;0.95;;;19.90;94.70;;;;;;5010147;28;20108;-67
2022/09/08 05:23:43;;;;;;;3.92;1.25;;;20.00;94.70;;;;;;5009417;28;20129;-67
2022/09/08 05:26:14;;;;;;;1.50;1.20;;;19.90;94.70;;;;;;5011552;28;20034;-67
2022/09/08 05:28:41;;;;;;;1.50;1.10;;;19.90;94.70;;;;;;5014345;28;20026;-68
2022/09/08 05:31:08;;;;;;;1.33;1.23;;;19.90;95.00;;;;;;5009064;28;20062;-67
2022/09/08 05:33:34;;;;;;;2.35;1.00;;;19.90;94.70;;;;;;5010047;28;20053;-67
2022/09/08 05:36:00;;;;;;;0.98;0.90;;;19.90;94.70;;;;;;5009007;28;20415;-66
2022/09/08 05:38:26;;;;;;;2.63;1.23;;;20.00;95.10;;;;;;5009761;28;20034;-67
2022/09/08 05:40:52;;;;;;;3.65;1.30;;;19.90;94.70;;;;;;5009640;28;20026;-67
2022/09/08 05:43:18;;;;;;;2.42;1.20;;;19.90;94.70;;;;;;5009164;28;20041;-67
2022/09/08 05:45:46;;;;;;;2.72;1.15;;;19.90;94.70;;;;;;5008727;28;20018;-67
2022/09/08 05:48:11;;;;;;;1.23;1.10;;;19.90;94.70;;;;;;5008935;28;20033;-67
2022/09/08 05:50:44;;;;;;;1.40;1.05;;;19.90;94.70;;;;;;5010091;28;20034;-67
2022/09/08 06:27:26;;;;;;;1.75;1.15;;;19.80;94.60;;;;;;5147864;27;20376;-67
2022/09/08 06:30:02;;;;;;;1.58;1.23;;;19.90;94.80;;;;;;5128160;27;20031;-66
2022/09/08 07:21:24;;;;;;;0.90;0.90;;;19.90;94.90;;;;;;5027830;28;20026;-65
2022/09/08 07:23:51;;;;;;;1.15;0.70;;;19.90;94.90;;;;;;5002510;28;20127;-65
2022/09/08 07:26:27;;;;;;;0.82;0.75;;;19.90;94.90;;;;;;5001173;28;20065;-65
2022/09/08 07:29:03;;;;;;;1.02;0.70;;;19.90;94.80;;;;;;4998829;28;20491;-65
2022/09/08 07:31:29;;;;;;;1.10;0.70;;;19.90;94.90;;;;;;4982469;28;20129;-65
2022/09/08 07:34:10;;;;;;;0.82;0.77;;;19.90;94.80;;;;;;5007476;28;20080;-65
2022/09/08 07:37:23;;;;;;;1.00;0.80;;;19.90;94.80;;;;;;5045265;28;20041;-65
2022/09/08 07:43:17;;;;;;;2.83;0.70;;;19.90;94.80;;;;;;5075693;28;20384;-65
2022/09/08 07:49:44;;;;;;;3.78;0.82;;;19.90;94.80;;;;;;5075368;28;20039;-65
2022/09/08 07:52:25;;;;;;;0.85;0.82;;;19.90;94.80;;;;;;5043121;28;20033;-65
2022/09/08 07:54:57;;;;;;;0.65;0.65;;;19.90;95.20;;;;;;5084079;28;20016;-65
2022/09/08 07:57:53;;;;;;;0.50;0.50;;;19.90;94.80;;;;;;5081338;28;20024;-65
2022/09/08 08:00:51;;;;;;;3.40;0.75;;;19.90;94.80;;;;;;5064784;28;20167;-65
2022/09/08 08:03:48;;;;;;;0.82;0.70;;;19.90;94.80;;;;;;5038585;28;20044;-65
2022/09/08 08:06:20;;;;;;;1.30;0.55;;;19.90;94.80;;;;;;5081259;28;20024;-65
2022/09/08 08:09:31;;;;;;;0.98;0.70;;;19.90;94.80;;;;;;5080090;28;20500;-65
2022/09/08 08:12:22;;;;;;;0.70;0.70;;;19.90;94.80;;;;;;5079960;28;20021;-65
2022/09/08 08:15:09;;;;;;;0.85;0.70;;;19.90;94.80;;;;;;5080157;28;20020;-65
2022/09/08 08:18:06;;;;;;;0.88;0.80;;;19.90;94.80;;;;;;5064904;28;20024;-65
2022/09/08 08:21:19;;;;;;;0.93;0.93;;;19.90;94.80;;;;;;5065493;28;20084;-65
2022/09/08 08:24:06;;;;;;;0.80;0.77;;;19.90;94.80;;;;;;5080085;28;20068;-65
2022/09/08 08:26:47;;;;;;;0.98;0.90;;;19.90;94.80;;;;;;5075016;28;20013;-65
2022/09/08 08:29:40;;;;;;;1.20;0.80;;;20.00;94.80;;;;;;5064031;28;20020;-66
2022/09/08 08:32:12;;;;;;;1.73;0.93;;;19.90;94.80;;;;;;5062041;28;20030;-66
2022/09/08 08:34:46;;;;;;;0.68;0.60;;;20.00;94.80;;;;;;5081422;28;20415;-65
2022/09/08 08:37:19;;;;;;;0.93;0.80;;;19.90;94.80;;;;;;5074500;28;20036;-65
2022/09/08 08:39:48;;;;;;;1.88;0.80;;;20.00;94.80;;;;;;5077355;28;20032;-65
2022/09/08 08:43:00;;;;;;;0.65;0.63;;;20.00;94.80;;;;;;5055842;28;20051;-65
2022/09/08 08:45:40;;;;;;;2.70;0.90;;;20.00;95.10;;;;;;4973464;28;20098;-65
2022/09/08 08:48:41;;;;;;;1.20;0.90;;;20.00;94.70;;;;;;4956763;28;20043;-65
2022/09/08 08:51:33;;;;;;;1.05;0.68;;;20.00;94.70;;;;;;4972255;28;20031;-65
2022/09/08 08:54:14;;;;;;;6.30;0.90;;;20.00;94.70;;;;;;4979380;28;20442;-65
2022/09/08 08:57:14;;;;;;;0.98;0.85;;;20.00;94.70;;;;;;4991871;28;20042;-65
2022/09/08 09:00:34;;;;;;;0.80;0.80;;;20.00;94.70;;;;;;4992003;28;20045;-65
2022/09/08 09:03:45;;;;;;;2.10;0.80;;;20.00;94.70;;;;;;4951714;29;20496;-65
2022/09/08 09:06:34;;;;;;;1.10;0.95;;;20.10;94.70;;;;;;4972492;28;20110;-65
2022/09/08 09:09:20;;;;;;;1.30;0.90;;;20.10;94.70;;;;;;4942536;28;20090;-65
2022/09/08 09:11:57;;;;;;;1.92;1.27;;;20.10;94.70;;;;;;4960396;28;20530;-65
2022/09/08 09:14:56;;;;;;;0.85;0.80;;;20.10;94.60;;;;;;4974195;28;20043;-66
2022/09/08 09:17:50;;;;;;;1.13;1.00;;;20.10;94.60;;;;;;4984722;28;20042;-66
2022/09/08 09:20:57;;;;;;;0.80;0.80;;;20.10;94.60;;;;;;4999577;28;20051;-65
2022/09/08 09:23:48;;;;;;;1.33;0.93;;;20.10;94.60;;;;;;5072047;28;20112;-65
2022/09/08 09:26:46;;;;;;;2.85;1.08;;;20.20;94.60;;;;;;5074042;28;20480;-65
2022/09/08 09:29:54;;;;;;;1.98;0.95;;;20.10;94.60;;;;;;5084059;28;20028;-65
2022/09/08 09:32:26;;;;;;;0.80;0.80;;;20.20;94.60;;;;;;5061914;28;20775;-65
2022/09/08 09:35:39;;;;;;;1.80;1.05;;;20.20;94.60;;;;;;5083473;28;20024;-65
2022/09/08 09:38:48;;;;;;;0.90;0.90;;;20.20;94.90;;;;;;5085451;28;20028;-65
2022/09/08 09:41:32;;;;;;;6.07;1.20;;;20.20;94.60;;;;;;5089750;28;20051;-65
2022/09/08 09:44:33;;;;;;;1.20;0.90;;;20.20;94.60;;;;;;5055112;28;20546;-65
2022/09/08 09:47:59;;;;;;;0.82;0.80;;;20.20;94.60;;;;;;4991114;28;20034;-65
2022/09/08 09:50:57;;;;;;;1.13;1.00;;;20.20;94.50;;;;;;4990085;28;20022;-65
2022/09/08 10:00:17;;;;;;;1.23;1.00;;;20.30;94.50;;;;;;4991062;28;20449;-65
2022/09/08 10:03:15;;;;;;;1.20;1.02;;;20.30;94.60;;;;;;4986016;28;20030;-66
2022/09/08 10:06:00;;;;;;;3.92;1.40;;;20.30;94.50;;;;;;4983660;28;20039;-66
2022/09/08 10:08:51;;;;;;;2.85;1.10;;;20.30;94.50;;;;;;4973132;28;20023;-65
2022/09/08 10:11:36;;;;;;;1.27;1.20;;;20.40;94.50;;;;;;4981552;28;20038;-66
2022/09/08 10:14:28;;;;;;;1.10;1.00;;;20.40;94.50;;;;;;4975863;28;20026;-65
2022/09/08 10:17:03;;;;;;;1.40;0.85;;;20.40;94.50;;;;;;4969610;28;20051;-65
2022/09/08 10:19:51;;;;;;;1.35;1.13;;;20.40;94.50;;;;;;4980375;28;20097;-65
2022/09/08 10:23:09;;;;;;;2.60;1.15;;;20.40;94.50;;;;;;4970040;28;20027;-65
2022/09/08 10:25:52;;;;;;;1.85;1.10;;;20.40;94.50;;;;;;4972906;28;20463;-66
2022/09/08 10:28:55;;;;;;;0.88;0.88;;;20.40;94.50;;;;;;4973322;28;20026;-66
2022/09/08 10:31:54;;;;;;;2.50;1.30;;;20.50;94.50;;;;;;4991004;28;20042;-66
2022/09/08 10:34:40;;;;;;;2.97;0.80;;;20.50;94.50;;;;;;4974212;28;20053;-65
2022/09/08 10:37:46;;;;;;;2.83;0.90;;;20.50;94.50;;;;;;5002505;28;20089;-65
2022/09/08 10:40:30;;;;;;;1.02;0.90;;;20.50;94.50;;;;;;4987305;28;20060;-66
2022/09/08 10:43:53;;;;;;;2.35;1.02;;;20.50;94.50;;;;;;5045269;28;20044;-65
2022/09/08 10:46:43;;;;;;;0.95;0.90;;;20.50;94.50;;;;;;4991237;28;20038;-65
2022/09/08 10:49:41;;;;;;;1.15;1.02;;;20.50;94.50;;;;;;5002196;28;20042;-66
2022/09/08 10:52:46;;;;;;;2.63;0.98;;;20.50;94.50;;;;;;5001161;28;20077;-66
2022/09/08 10:55:30;;;;;;;2.50;1.00;;;20.50;94.50;;;;;;4980212;28;20080;-66
2022/09/08 10:58:16;;;;;;;2.03;0.90;;;20.50;94.40;;;;;;4992938;28;20104;-66
2022/09/08 11:01:14;;;;;;;0.55;0.55;;;20.50;94.40;;;;;;4992544;28;20441;-66
2022/09/08 11:03:58;;;;;;;1.15;0.93;;;20.50;94.40;;;;;;4995844;28;20037;-66
2022/09/08 11:06:28;;;;;;;2.15;0.98;;;20.50;94.40;;;;;;5008996;28;20038;-66
2022/09/08 11:09:30;;;;;;;2.88;1.00;;;20.50;94.40;;;;;;4975166;28;20019;-66
2022/09/08 11:12:46;;;;;;;4.32;1.05;;;20.60;94.40;;;;;;5007268;28;20027;-66
2022/09/08 11:15:36;;;;;;;4.53;1.20;;;20.60;94.40;;;;;;4927038;28;20089;-66
2022/09/08 11:18:43;;;;;;;2.60;1.20;;;20.60;94.40;;;;;;5083476;28;20028;-66
2022/09/08 11:21:30;;;;;;;1.45;1.02;;;20.50;94.40;;;;;;4990117;28;20049;-66
2022/09/08 11:24:17;;;;;;;2.05;0.90;;;20.50;94.40;;;;;;4959327;28;20169;-66
2022/09/08 11:26:54;;;;;;;1.75;1.10;;;20.60;94.40;;;;;;4992660;28;20029;-66
2022/09/08 11:29:30;;;;;;;6.53;1.15;;;20.60;94.40;;;;;;4981817;28;20069;-65
2022/09/08 11:35:55;;;;;;;1.88;1.63;;;20.60;94.30;;;;;;4994376;28;20400;-66
2022/09/08 11:38:30;;;;;;;3.90;1.10;;;20.60;94.30;;;;;;4990218;28;20069;-66
2022/09/08 11:41:26;;;;;;;3.10;1.00;;;20.60;94.30;;;;;;4993995;28;20023;-66
2022/09/08 11:43:58;;;;;;;3.45;0.90;;;20.60;94.30;;;;;;4982626;28;20092;-66
2022/09/08 11:46:37;;;;;;;1.23;1.13;;;20.60;94.30;;;;;;4972985;28;20026;-66
2022/09/08 11:56:36;;;;;;;0.70;0.70;;;20.70;94.30;;;;;;4992734;28;20048;-66
2022/09/08 11:59:19;;;;;;;1.40;0.93;;;20.70;94.30;;;;;;5064431;28;20028;-66
2022/09/08 12:02:21;;;;;;;5.97;1.75;;;20.70;94.20;;;;;;5084169;28;20488;-66
2022/09/08 12:05:16;;;;;;;0.90;0.90;;;20.70;94.20;;;;;;5066404;28;20067;-66
2022/09/08 12:08:06;;;;;;;1.45;1.00;;;20.70;94.20;;;;;;5060818;28;20067;-66
2022/09/08 12:10:57;;;;;;;3.13;1.20;;;20.70;94.20;;;;;;5090152;28;20487;-66
2022/09/08 12:13:57;;;;;;;2.28;0.90;;;20.70;94.20;;;;;;5094312;28;20074;-65
2022/09/08 12:16:45;;;;;;;3.28;0.80;;;20.70;94.20;;;;;;5084927;28;20028;-66
2022/09/08 12:19:58;;;;;;;4.93;0.80;;;20.70;94.20;;;;;;5062841;28;20021;-66
2022/09/08 12:40:14;;;;;;;0.82;0.82;;;20.70;94.30;;;;;;5016184;28;20590;-66
2022/09/08 12:56:21;;;;;;;0.95;0.85;;;20.70;94.40;;;;;;5022808;28;20510;-66
2022/09/08 12:59:23;;;;;;;0.70;0.70;;;20.70;94.40;;;;;;5027429;28;20481;-66
2022/09/08 13:02:27;;;;;;;5.53;0.70;;;20.70;94.30;;;;;;5073291;28;20021;-66
2022/09/08 13:05:27;;;;;;;0.90;0.65;;;20.80;94.40;;;;;;5061586;28;20127;-66
2022/09/08 13:08:18;;;;;;;1.65;0.70;;;20.80;94.40;;;;;;5070978;28;20028;-66
2022/09/08 13:10:52;;;;;;;1.17;0.80;;;20.80;94.40;;;;;;5089530;28;20044;-66
2022/09/08 13:13:41;;;;;;;0.60;0.60;;;20.80;94.40;;;;;;5072649;28;20067;-66
2022/09/08 13:16:31;;;;;;;3.00;0.80;;;20.80;94.40;;;;;;5054881;28;20047;-67
2022/09/08 13:20:08;;;;;;;0.77;0.70;;;20.80;94.40;;;;;;5073677;28;20069;-65
2022/09/08 13:23:02;;;;;;;4.03;0.60;;;20.80;94.30;;;;;;5092525;28;20464;-66
2022/09/08 13:25:50;;;;;;;0.60;0.60;;;20.80;94.30;;;;;;5059849;28;20051;-65
2022/09/08 13:28:32;;;;;;;5.80;0.65;;;20.80;94.30;;;;;;5073893;28;20024;-66
2022/09/08 13:31:22;;;;;;;7.05;0.90;;;20.80;94.30;;;;;;5064348;28;20027;-65
2022/09/08 13:34:09;;;;;;;1.05;0.80;;;20.80;94.30;;;;;;5055416;28;20500;-66
2022/09/08 13:36:53;;;;;;;0.90;0.80;;;20.80;94.30;;;;;;5057724;28;20041;-66
2022/09/08 13:39:35;;;;;;;3.50;0.70;;;20.80;94.30;;;;;;5075641;28;20046;-65
2022/09/08 13:42:37;;;;;;;0.60;0.60;;;20.80;94.30;;;;;;5033042;28;20053;-66
2022/09/08 13:45:52;;;;;;;0.85;0.73;;;20.80;94.40;;;;;;5032161;28;20025;-66
2022/09/08 14:19:06;;;;;;;4.70;0.82;;;20.80;94.20;;;;;;4991289;28;20559;-66
2022/09/08 14:59:31;;;;;;;1.33;0.80;;;20.80;93.60;;;;;;5012908;28;20038;-67
2022/09/08 15:02:12;;;;;;;2.08;0.65;;;20.80;93.40;;;;;;5051887;28;20040;-67
2022/09/08 15:04:45;;;;;;;1.38;0.88;;;20.80;93.00;;;;;;5081808;28;20024;-67
2022/09/08 15:07:21;;;;;;;1.63;1.02;;;20.80;92.80;;;;;;5081968;28;20262;-67
2022/09/08 15:09:53;;;;;;;0.52;0.52;;;20.80;92.50;;;;;;5078778;28;20017;-67
2022/09/08 15:12:31;;;;;;;1.00;0.90;;;20.70;92.20;;;;;;5083817;28;20063;-67
2022/09/08 15:15:00;;;;;;;1.63;0.88;;;20.70;91.90;;;;;;5084404;28;20024;-67
2022/09/08 15:17:28;;;;;;;1.20;0.65;;;20.70;91.20;;;;;;5079632;28;20100;-67
2022/09/08 15:20:00;;;;;;;1.58;0.85;;;20.70;91.00;;;;;;5079538;28;20048;-67
2022/09/08 15:22:44;;;;;;;1.13;0.65;;;20.70;90.90;;;;;;5083172;28;20028;-68
2022/09/08 15:25:51;;;;;;;6.75;0.70;;;20.70;90.80;;;;;;5082337;28;20024;-66
2022/09/08 15:28:20;;;;;;;0.80;0.70;;;20.70;90.40;;;;;;5082289;28;20055;-66
2022/09/08 15:30:59;;;;;;;1.10;0.63;;;20.70;89.50;;;;;;5084309;28;20423;-66
2022/09/08 15:33:40;;;;;;;5.18;0.70;;;20.70;89.10;;;;;;5081303;28;20067;-66
2022/09/08 15:36:18;;;;;;;0.85;0.50;;;20.60;88.70;;;;;;5080009;28;20075;-66
2022/09/08 15:38:56;;;;;;;2.45;0.60;;;20.60;88.40;;;;;;5084358;28;20027;-66
2022/09/08 15:41:27;;;;;;;2.65;0.50;;;20.60;87.90;;;;;;5080660;28;20036;-66
2022/09/08 15:44:11;;;;;;;0.80;0.60;;;20.60;87.80;;;;;;5080542;28;20024;-66
2022/09/08 15:47:04;;;;;;;3.90;1.00;;;20.60;87.70;;;;;;5079896;28;20031;-66
2022/09/08 15:50:11;;;;;;;0.68;0.60;;;20.60;87.70;;;;;;5064302;28;20020;-66
2022/09/08 15:53:05;;;;;;;2.92;0.75;;;20.60;87.60;;;;;;5061687;28;20042;-67
2022/09/08 15:55:51;;;;;;;0.80;0.60;;;20.50;87.30;;;;;;5080632;28;20028;-66
2022/09/08 15:58:31;;;;;;;0.60;0.60;;;20.60;87.30;;;;;;5082182;28;20410;-66
2022/09/08 16:01:00;;;;;;;0.60;0.60;;;20.60;87.40;;;;;;5079752;28;20496;-66
2022/09/08 16:04:00;;;;;;;1.33;0.60;;;20.60;86.80;;;;;;5082579;28;20013;-66
2022/09/08 16:06:37;;;;;;;0.70;0.70;;;20.60;86.80;;;;;;4980813;28;20034;-66
2022/09/08 16:09:51;;;;;;;2.35;0.85;;;20.50;86.80;;;;;;4980679;28;20084;-66
2022/09/08 16:12:19;;;;;;;0.73;0.70;;;20.60;86.90;;;;;;4920445;29;20070;-67
2022/09/08 16:14:55;;;;;;;1.83;0.82;;;20.50;87.10;;;;;;4922682;29;20458;-66
2022/09/08 16:17:21;;;;;;;2.00;0.77;;;20.50;87.20;;;;;;4919975;29;20488;-66
2022/09/08 16:20:15;;;;;;;1.92;0.70;;;20.50;87.30;;;;;;4919648;29;20482;-66
2022/09/08 16:22:51;;;;;;;2.42;0.70;;;20.50;87.40;;;;;;4923976;29;20031;-66
2022/09/08 16:25:47;;;;;;;1.90;0.60;;;20.50;86.90;;;;;;4922185;29;20043;-66
2022/09/08 16:28:40;;;;;;;4.05;0.75;;;20.50;87.00;;;;;;4919655;29;20044;-67
2022/09/08 16:31:17;;;;;;;1.20;0.88;;;20.50;87.10;;;;;;4920497;29;20036;-66
2022/09/08 16:33:58;;;;;;;0.52;0.52;;;20.50;86.90;;;;;;4920473;29;20035;-66
2022/09/08 16:36:29;;;;;;;4.40;0.73;;;20.40;86.60;;;;;;4920397;29;20040;-66
2022/09/08 16:39:14;;;;;;;2.25;0.73;;;20.50;86.60;;;;;;4918269;29;20032;-66
2022/09/08 16:41:42;;;;;;;2.15;0.70;;;20.50;86.50;;;;;;4917077;28;20091;-66
2022/09/08 16:44:30;;;;;;;2.55;0.80;;;20.40;86.30;;;;;;4972953;28;20033;-66
2022/09/08 16:47:08;;;;;;;2.72;1.00;;;20.40;86.10;;;;;;4956896;28;20039;-66
2022/09/08 16:49:39;;;;;;;0.68;0.68;;;20.40;85.90;;;;;;5072778;28;20061;-66
2022/09/08 16:52:36;;;;;;;1.98;0.70;;;20.40;85.80;;;;;;5073797;28;20386;-66
2022/09/08 16:55:21;;;;;;;3.75;0.90;;;20.40;85.70;;;;;;5086366;28;20366;-66
2022/09/08 16:58:15;;;;;;;2.00;0.70;;;20.40;85.50;;;;;;5082626;28;20032;-66
2022/09/08 17:01:01;;;;;;;2.78;0.70;;;20.40;85.40;;;;;;5078386;28;20044;-66
2022/09/08 17:03:53;;;;;;;3.17;0.90;;;20.40;85.20;;;;;;5062783;28;20020;-66
2022/09/08 17:06:49;;;;;;;2.17;0.63;;;20.40;85.20;;;;;;5040816;28;20032;-66
2022/09/08 17:09:42;;;;;;;2.45;0.77;;;20.30;85.00;;;;;;5087576;28;20031;-67
2022/09/08 17:12:17;;;;;;;1.35;0.70;;;20.40;85.00;;;;;;5078046;28;20537;-66
2022/09/08 17:14:45;;;;;;;1.25;0.65;;;20.30;84.70;;;;;;5079215;28;20024;-66
2022/09/08 17:17:48;;;;;;;2.78;0.93;;;20.30;84.70;;;;;;5075208;28;20045;-66
2022/09/08 17:20:28;;;;;;;0.75;0.70;;;20.30;84.60;;;;;;5079941;28;20110;-66
2022/09/08 17:23:06;;;;;;;2.92;0.90;;;20.30;84.60;;;;;;5089525;28;20035;-68
2022/09/08 17:25:48;;;;;;;1.83;0.70;;;20.30;84.70;;;;;;5075986;28;20027;-68
2022/09/08 17:28:13;;;;;;;2.97;1.05;;;20.30;84.60;;;;;;5079672;28;20031;-68
2022/09/08 17:30:52;;;;;;;1.77;0.80;;;20.20;84.40;;;;;;5077224;28;20017;-68
2022/09/08 17:33:41;;;;;;;4.65;1.48;;;20.30;84.40;;;;;;5077162;28;20028;-68
2022/09/08 17:36:30;;;;;;;1.45;0.98;;;20.20;84.30;;;;;;5072102;28;20048;-66
2022/09/08 17:38:57;;;;;;;1.98;0.70;;;20.20;85.00;;;;;;5081191;28;20552;-66
2022/09/08 17:41:48;;;;;;;1.17;1.08;;;20.20;84.60;;;;;;5075357;28;20032;-66
2022/09/08 17:44:31;;;;;;;2.72;1.27;;;20.20;85.00;;;;;;5074247;28;20028;-66
2022/09/08 17:47:08;;;;;;;1.13;0.70;;;20.20;85.30;;;;;;5076652;28;20108;-65